Archival Weather

Tokyo Intl

Tokyo Intl, Japan (RJTT)

Report from: Friday, June 24, 2022 10:30 PM JST
Current time: Tuesday, August 16, 2022 10:32 AM JST

Current weather
Weather history
Weather forecast

Temperature26.0°C (78.8°F)
Dew point23.0°C (73.4°F)
Winds 21 kts (10.8 m/s, 24.2 mph) South-Southwest (200°)
Visibility6.2 mi. (10 km)
Clouds Few clouds 1,000 ft. (305 m)
Altimeter29.62 in.Hg (1003 mB)
Relative humidity84 %
Density altitude1,995 ft. (608 m)
Remarks No significant changes expected in the next two hours
Flight conditions Visual Meteorological Conditions
Raw dataRJTT 241330Z 20021KT 9999 FEW010 26/23 Q1003 NOSIG RMK 1CU010 A2963
An error has occurred. This application may no longer respond until reloaded. Reload 🗙